Time;durP1;ratioP1;P1;durP2;ratioP2;P2;SDS_P1;SDS_P2;PMS_P1;PMS_P2;Temp;Humidity;BMP_temperature;BMP_pressure;BME280_temperature;BME280_humidity;BME280_pressure;Samples;Min_cycle;Max_cycle;Signal;HPM_P1;HPM_P2
2023/01/06 00:01:35;;;;;;;0.98;0.95;;;;;;;;;;5076511;28;20039;-63
2023/01/06 00:04:11;;;;;;;2.53;1.33;;;;;;;;;;5076408;28;20032;-63
2023/01/06 00:06:40;;;;;;;1.67;1.10;;;;;;;;;;5058422;28;20036;-63
2023/01/06 00:13:38;;;;;;;;;;;;;;;;;;;;;
2023/01/06 00:23:51;;;;;;;2.10;0.93;;;;;;;;;;5032001;23;20142;-72
2023/01/06 00:26:27;;;;;;;1.85;1.23;;;;;;;;;;5038639;28;20164;-72
2023/01/06 00:29:00;;;;;;;1.45;0.90;;;;;;;;;;5055689;28;20116;-72
2023/01/06 00:31:26;;;;;;;1.40;1.10;;;;;;;;;;5055857;28;20045;-71
2023/01/06 00:33:58;;;;;;;1.13;1.02;;;;;;;;;;5056115;28;20029;-71
2023/01/06 00:36:37;;;;;;;1.70;1.13;;;;;;;;;;5054301;28;20492;-71
2023/01/06 00:42:23;;;;;;;;;;;;;;;;;;;;;
2023/01/06 00:45:14;;;;;;;1.48;1.13;;;;;;;;;;5055698;28;20091;-71
2023/01/06 00:48:29;;;;;;;2.20;1.00;;;;;;;;;;5054396;28;20041;-71
2023/01/06 00:51:42;;;;;;;1.67;1.30;;;;;;;;;;5055818;28;20057;-71
2023/01/06 00:54:44;;;;;;;1.60;1.15;;;;;;;;;;5050121;28;20045;-71
2023/01/06 01:04:38;;;;;;;2.20;1.23;;;;;;;;;;5052684;28;20021;-71
2023/01/06 01:07:29;;;;;;;1.83;1.40;;;;;;;;;;5054908;28;20044;-72
2023/01/06 01:10:51;;;;;;;2.08;1.30;;;;;;;;;;5055195;28;20060;-71
2023/01/06 01:17:09;;;;;;;1.60;1.50;;;;;;;;;;5038263;28;20032;-71
2023/01/06 01:20:11;;;;;;;1.30;1.20;;;;;;;;;;5054903;28;20535;-71
2023/01/06 01:23:03;;;;;;;1.48;1.20;;;;;;;;;;5037235;28;20033;-71
2023/01/06 01:25:29;;;;;;;3.17;1.50;;;;;;;;;;5054624;28;20052;-71
2023/01/06 01:27:54;;;;;;;2.33;1.48;;;;;;;;;;5053258;28;20037;-71
2023/01/06 01:30:20;;;;;;;1.20;1.08;;;;;;;;;;5054547;28;20048;-71
2023/01/06 01:32:45;;;;;;;1.30;1.20;;;;;;;;;;5069772;28;20080;-71
2023/01/06 01:35:15;;;;;;;1.95;1.20;;;;;;;;;;5054706;28;20116;-71
2023/01/06 01:37:50;;;;;;;1.48;1.38;;;;;;;;;;5036545;28;20033;-71
2023/01/06 01:40:19;;;;;;;1.45;1.30;;;;;;;;;;5036958;28;20036;-71
2023/01/06 01:42:53;;;;;;;1.65;1.42;;;;;;;;;;5036395;28;20435;-71
2023/01/06 01:45:24;;;;;;;2.72;1.23;;;;;;;;;;5052982;28;20128;-72
2023/01/06 01:48:04;;;;;;;1.48;1.38;;;;;;;;;;5054163;28;20037;-72
2023/01/06 01:50:48;;;;;;;;;;;;;;;;;;;;;
2023/01/06 01:53:34;;;;;;;1.52;1.40;;;;;;;;;;5052576;28;20488;-70
2023/01/06 01:56:11;;;;;;;1.70;1.30;;;;;;;;;;5037655;28;20032;-71
2023/01/06 01:58:50;;;;;;;1.70;1.60;;;;;;;;;;5052122;28;20043;-71
2023/01/06 02:01:57;;;;;;;;;;;;;;;;;;;;;
2023/01/06 02:04:54;;;;;;;2.72;1.58;;;;;;;;;;5052397;28;20036;-72
2023/01/06 02:07:56;;;;;;;;;;;;;;;;;;;;;
2023/01/06 02:10:30;;;;;;;3.95;1.85;;;;;;;;;;5052529;28;20120;-71
2023/01/06 02:13:04;;;;;;;1.90;1.50;;;;;;;;;;5051848;28;20423;-70
2023/01/06 02:15:36;;;;;;;2.03;1.60;;;;;;;;;;5035852;28;20041;-70
2023/01/06 02:18:17;;;;;;;2.40;1.27;;;;;;;;;;5052424;28;20029;-70
2023/01/06 02:20:56;;;;;;;1.92;1.33;;;;;;;;;;5019828;28;20084;-70
2023/01/06 02:23:53;;;;;;;1.45;1.20;;;;;;;;;;5028060;28;20041;-71
2023/01/06 02:26:22;;;;;;;1.95;1.40;;;;;;;;;;5032358;28;20132;-70
2023/01/06 02:29:01;;;;;;;2.72;1.55;;;;;;;;;;5015915;28;20037;-70
2023/01/06 02:31:52;;;;;;;1.77;1.65;;;;;;;;;;5033536;28;20042;-70
2023/01/06 02:34:38;;;;;;;1.58;1.40;;;;;;;;;;5015876;28;20132;-70
2023/01/06 02:37:16;;;;;;;2.67;1.50;;;;;;;;;;5034110;28;20429;-70
2023/01/06 02:40:00;;;;;;;2.25;1.48;;;;;;;;;;5033757;28;20030;-70
2023/01/06 02:42:43;;;;;;;1.98;1.60;;;;;;;;;;5032216;28;20056;-70
2023/01/06 02:45:46;;;;;;;1.52;1.40;;;;;;;;;;5032188;28;20042;-70
2023/01/06 02:48:56;;;;;;;3.17;1.52;;;;;;;;;;5032604;28;20080;-70
2023/01/06 02:51:38;;;;;;;1.45;1.30;;;;;;;;;;5032125;28;20045;-70
2023/01/06 02:54:07;;;;;;;1.83;1.60;;;;;;;;;;5032133;28;20041;-70
2023/01/06 02:56:37;;;;;;;1.73;1.35;;;;;;;;;;5032549;28;20509;-70
2023/01/06 02:59:13;;;;;;;2.90;1.60;;;;;;;;;;5032168;28;20037;-70
2023/01/06 03:01:41;;;;;;;1.95;1.33;;;;;;;;;;5033637;28;20030;-70
2023/01/06 03:04:09;;;;;;;1.58;1.48;;;;;;;;;;5032082;28;20073;-70
2023/01/06 03:06:43;;;;;;;2.47;1.88;;;;;;;;;;5032048;28;20025;-70
2023/01/06 03:09:12;;;;;;;1.60;1.50;;;;;;;;;;5034113;28;20048;-70
2023/01/06 03:11:42;;;;;;;1.92;1.63;;;;;;;;;;5035899;28;20044;-70
2023/01/06 03:14:14;;;;;;;1.73;1.58;;;;;;;;;;5036164;28;20037;-70
2023/01/06 03:16:39;;;;;;;1.75;1.52;;;;;;;;;;5035895;28;20132;-70
2023/01/06 03:19:05;;;;;;;1.73;1.50;;;;;;;;;;5035783;28;20061;-70
2023/01/06 03:21:33;;;;;;;3.92;2.10;;;;;;;;;;5019323;28;20029;-70
2023/01/06 03:23:58;;;;;;;2.03;1.80;;;;;;;;;;5035593;28;20115;-70
2023/01/06 03:26:24;;;;;;;1.60;1.50;;;;;;;;;;5036955;28;20477;-71
2023/01/06 03:28:51;;;;;;;2.05;1.95;;;;;;;;;;5036921;28;20083;-71
2023/01/06 03:31:28;;;;;;;2.03;1.88;;;;;;;;;;5035626;28;20030;-70
2023/01/06 03:34:12;;;;;;;2.55;1.80;;;;;;;;;;5037102;28;20100;-70
2023/01/06 03:36:53;;;;;;;2.28;1.73;;;;;;;;;;5035540;28;20041;-71
2023/01/06 03:39:32;;;;;;;2.08;1.88;;;;;;;;;;5035462;28;20025;-70
2023/01/06 03:44:49;;;;;;;3.10;2.30;;;;;;;;;;5036923;28;20033;-70
2023/01/06 03:47:31;;;;;;;2.10;2.00;;;;;;;;;;5035305;28;20489;-70
2023/01/06 03:49:56;;;;;;;;;;;;;;;;;;5037245;28;20470;-70
2023/01/06 03:52:32;;;;;;;2.80;2.10;;;;;;;;;;5035177;28;19963;-70
2023/01/06 03:55:01;;;;;;;3.50;1.88;;;;;;;;;;5035213;28;20279;-70
2023/01/06 03:57:30;;;;;;;2.40;2.15;;;;;;;;;;5035137;28;20029;-71
2023/01/06 03:59:59;;;;;;;2.58;2.20;;;;;;;;;;5035658;28;20029;-70
2023/01/06 04:02:25;;;;;;;2.83;2.03;;;;;;;;;;5035603;28;20132;-70
2023/01/06 04:05:10;;;;;;;2.88;2.20;;;;;;;;;;5034975;28;20037;-70
2023/01/06 04:07:37;;;;;;;3.00;2.10;;;;;;;;;;5034958;28;20045;-70
2023/01/06 04:10:02;;;;;;;3.42;1.92;;;;;;;;;;5018398;28;20072;-70
2023/01/06 04:12:37;;;;;;;2.65;2.28;;;;;;;;;;5034770;28;20053;-70
2023/01/06 04:15:06;;;;;;;3.28;2.00;;;;;;;;;;5034798;28;20041;-70
2023/01/06 04:17:31;;;;;;;2.63;2.40;;;;;;;;;;5036299;28;20026;-69
2023/01/06 04:19:57;;;;;;;2.20;2.00;;;;;;;;;;5035613;28;20036;-70
2023/01/06 04:22:22;;;;;;;2.25;2.05;;;;;;;;;;5034531;28;20547;-70
2023/01/06 04:24:48;;;;;;;3.22;2.30;;;;;;;;;;5053233;28;20053;-70
2023/01/06 04:27:13;;;;;;;3.88;2.10;;;;;;;;;;5055752;28;20037;-70
2023/01/06 04:29:38;;;;;;;2.90;2.60;;;;;;;;;;5071161;28;20036;-70
2023/01/06 04:32:04;;;;;;;2.10;1.90;;;;;;;;;;5055588;28;20575;-70
2023/01/06 04:34:29;;;;;;;2.53;2.33;;;;;;;;;;5054403;28;20396;-70
2023/01/06 04:36:56;;;;;;;3.20;1.90;;;;;;;;;;5037985;28;20473;-70
2023/01/06 04:39:21;;;;;;;4.22;2.15;;;;;;;;;;5055495;28;20116;-70
2023/01/06 04:41:47;;;;;;;2.53;2.33;;;;;;;;;;5055533;28;20037;-70
2023/01/06 04:44:12;;;;;;;2.38;2.08;;;;;;;;;;5055414;28;20480;-70
2023/01/06 04:46:37;;;;;;;2.70;2.50;;;;;;;;;;5055943;28;20037;-69
2023/01/06 04:49:03;;;;;;;2.83;2.17;;;;;;;;;;5055324;28;20068;-70
2023/01/06 04:51:28;;;;;;;2.65;2.40;;;;;;;;;;5055257;28;20043;-70
2023/01/06 04:53:54;;;;;;;2.75;2.47;;;;;;;;;;5055267;28;20357;-70
2023/01/06 04:56:20;;;;;;;2.80;2.42;;;;;;;;;;5055515;28;20037;-70
2023/01/06 04:58:45;;;;;;;2.47;2.15;;;;;;;;;;5055469;28;20098;-70
2023/01/06 05:01:11;;;;;;;4.07;2.75;;;;;;;;;;5055407;28;20044;-70
2023/01/06 05:03:37;;;;;;;4.25;2.65;;;;;;;;;;5055090;28;20041;-70
2023/01/06 05:06:10;;;;;;;2.60;2.30;;;;;;;;;;5055020;28;20082;-70
2023/01/06 05:08:36;;;;;;;3.63;2.75;;;;;;;;;;5055212;28;20521;-70
2023/01/06 05:11:03;;;;;;;4.15;2.75;;;;;;;;;;5054890;28;20029;-70
2023/01/06 05:13:30;;;;;;;2.78;2.58;;;;;;;;;;5055525;28;20372;-70
2023/01/06 05:15:55;;;;;;;2.50;2.17;;;;;;;;;;5055088;28;20449;-70
2023/01/06 05:18:21;;;;;;;2.60;2.40;;;;;;;;;;5054778;28;20043;-70
2023/01/06 05:20:50;;;;;;;3.47;2.35;;;;;;;;;;5054772;28;20053;-69
2023/01/06 05:23:15;;;;;;;2.92;2.20;;;;;;;;;;5054557;28;20047;-70
2023/01/06 05:25:41;;;;;;;3.88;2.50;;;;;;;;;;5055195;28;20041;-70
2023/01/06 05:28:09;;;;;;;3.75;3.03;;;;;;;;;;5054868;28;20044;-70
2023/01/06 05:30:37;;;;;;;3.72;2.40;;;;;;;;;;5055105;28;20041;-69
2023/01/06 05:33:06;;;;;;;2.40;2.20;;;;;;;;;;5054068;28;20041;-70
2023/01/06 05:35:34;;;;;;;2.78;2.28;;;;;;;;;;5054986;28;20025;-70
2023/01/06 05:38:04;;;;;;;2.67;2.33;;;;;;;;;;5054693;28;20407;-70
2023/01/06 05:40:39;;;;;;;4.45;2.22;;;;;;;;;;5037847;28;20120;-69
2023/01/06 05:43:09;;;;;;;2.30;2.10;;;;;;;;;;5054589;28;20373;-70
2023/01/06 05:45:40;;;;;;;2.03;1.92;;;;;;;;;;5036230;28;20117;-70
2023/01/06 05:48:10;;;;;;;2.95;2.22;;;;;;;;;;5054531;28;20037;-70
2023/01/06 05:50:41;;;;;;;1.95;1.80;;;;;;;;;;5054510;28;20120;-69
2023/01/06 05:53:10;;;;;;;2.55;1.95;;;;;;;;;;5019856;28;20075;-69
2023/01/06 05:55:40;;;;;;;2.72;2.13;;;;;;;;;;5054639;28;20028;-70
2023/01/06 05:58:11;;;;;;;2.78;2.35;;;;;;;;;;5054329;28;20029;-69
2023/01/06 06:00:45;;;;;;;2.80;2.25;;;;;;;;;;5054565;28;20087;-70
2023/01/06 06:03:16;;;;;;;4.45;2.30;;;;;;;;;;5054519;28;20072;-70
2023/01/06 06:05:45;;;;;;;3.20;2.30;;;;;;;;;;5054212;28;20037;-69
2023/01/06 06:08:14;;;;;;;2.88;2.40;;;;;;;;;;5054186;28;20248;-70
2023/01/06 06:10:42;;;;;;;4.18;2.67;;;;;;;;;;5054132;28;20044;-69
2023/01/06 06:13:09;;;;;;;3.40;2.55;;;;;;;;;;5054047;28;20044;-69
2023/01/06 06:15:42;;;;;;;2.60;2.35;;;;;;;;;;5053818;28;20111;-70
2023/01/06 06:18:09;;;;;;;3.22;2.40;;;;;;;;;;5054046;28;20033;-69
2023/01/06 06:20:41;;;;;;;3.50;2.85;;;;;;;;;;5053978;28;20542;-70
2023/01/06 06:23:09;;;;;;;2.63;2.42;;;;;;;;;;5053519;28;20033;-69
2023/01/06 06:25:39;;;;;;;3.50;2.80;;;;;;;;;;5036372;28;20037;-70
2023/01/06 06:28:26;;;;;;;3.05;2.75;;;;;;;;;;5053911;28;20045;-70
2023/01/06 06:30:56;;;;;;;3.35;2.63;;;;;;;;;;5053625;28;20518;-70
2023/01/06 06:33:26;;;;;;;4.15;3.08;;;;;;;;;;5053733;28;20051;-70
2023/01/06 06:36:01;;;;;;;3.83;2.97;;;;;;;;;;5053536;28;20037;-70
2023/01/06 06:38:47;;;;;;;3.28;2.63;;;;;;;;;;5052713;28;20040;-70
2023/01/06 06:41:14;;;;;;;2.95;2.40;;;;;;;;;;5054013;28;20349;-70
2023/01/06 06:43:46;;;;;;;2.72;2.53;;;;;;;;;;5051771;28;20052;-70
2023/01/06 06:46:17;;;;;;;3.75;2.92;;;;;;;;;;5053971;28;20048;-70
2023/01/06 06:48:50;;;;;;;3.90;2.88;;;;;;;;;;5053707;28;20037;-70
2023/01/06 06:51:19;;;;;;;6.47;3.05;;;;;;;;;;5053575;28;20048;-70
2023/01/06 06:53:51;;;;;;;3.83;3.10;;;;;;;;;;5053319;28;20068;-70
2023/01/06 06:56:22;;;;;;;5.00;3.05;;;;;;;;;;5053551;28;20048;-70
2023/01/06 06:58:53;;;;;;;3.20;2.90;;;;;;;;;;5053613;28;20037;-70
2023/01/06 07:01:23;;;;;;;3.65;2.83;;;;;;;;;;5052725;28;20126;-70
2023/01/06 07:03:56;;;;;;;4.90;3.00;;;;;;;;;;5053289;28;20483;-69
2023/01/06 07:06:31;;;;;;;4.05;3.22;;;;;;;;;;5053237;28;20033;-70
2023/01/06 07:09:02;;;;;;;5.57;3.30;;;;;;;;;;5053522;28;20110;-69
2023/01/06 07:11:32;;;;;;;2.95;2.53;;;;;;;;;;5053248;28;20059;-71
2023/01/06 07:13:59;;;;;;;3.80;3.45;;;;;;;;;;5053156;28;20037;-70
2023/01/06 07:16:30;;;;;;;8.70;5.35;;;;;;;;;;5053163;28;20033;-70
2023/01/06 07:18:58;;;;;;;10.45;5.05;;;;;;;;;;5053654;28;20469;-70
2023/01/06 07:21:27;;;;;;;7.10;5.63;;;;;;;;;;5053418;28;20017;-70
2023/01/06 07:24:20;;;;;;;5.00;3.60;;;;;;;;;;5039452;28;20044;-70
2023/01/06 07:26:48;;;;;;;4.20;3.50;;;;;;;;;;5032757;28;20044;-70
2023/01/06 07:29:20;;;;;;;3.97;3.60;;;;;;;;;;5033698;28;20417;-69
2023/01/06 07:31:49;;;;;;;5.47;4.32;;;;;;;;;;5031812;28;20436;-70
2023/01/06 07:34:21;;;;;;;5.40;4.80;;;;;;;;;;5033394;28;20546;-70
2023/01/06 07:36:52;;;;;;;6.78;5.60;;;;;;;;;;5033087;28;20038;-70
2023/01/06 07:39:20;;;;;;;7.70;5.82;;;;;;;;;;5033060;28;20037;-70
2023/01/06 07:41:51;;;;;;;8.73;5.10;;;;;;;;;;5033568;28;20034;-69
2023/01/06 07:44:22;;;;;;;3.88;2.92;;;;;;;;;;5033289;28;20401;-70
2023/01/06 07:46:53;;;;;;;4.13;3.03;;;;;;;;;;5033317;28;20087;-70
2023/01/06 07:49:26;;;;;;;5.03;3.58;;;;;;;;;;5033452;28;20083;-70
2023/01/06 07:51:57;;;;;;;5.50;3.28;;;;;;;;;;5032970;28;20052;-69
2023/01/06 07:54:28;;;;;;;6.28;3.90;;;;;;;;;;5033169;28;20030;-70
2023/01/06 07:56:55;;;;;;;4.97;3.58;;;;;;;;;;5036093;28;20045;-70
2023/01/06 07:59:26;;;;;;;5.32;3.40;;;;;;;;;;5036654;28;20072;-69
2023/01/06 08:02:34;;;;;;;4.25;3.17;;;;;;;;;;5036638;28;20042;-70
2023/01/06 08:05:01;;;;;;;4.30;3.35;;;;;;;;;;5036608;28;20034;-70
2023/01/06 08:07:32;;;;;;;6.85;4.68;;;;;;;;;;5052757;28;20080;-70
2023/01/06 08:10:01;;;;;;;6.25;4.00;;;;;;;;;;5036797;28;20041;-70
2023/01/06 08:12:33;;;;;;;17.42;8.75;;;;;;;;;;5051545;28;20029;-69
2023/01/06 08:15:01;;;;;;;35.67;14.93;;;;;;;;;;5035528;28;20034;-70
2023/01/06 08:17:32;;;;;;;22.80;9.32;;;;;;;;;;5036372;28;20029;-70
2023/01/06 08:20:03;;;;;;;9.88;4.30;;;;;;;;;;5036570;28;20043;-70
2023/01/06 08:22:33;;;;;;;3.38;2.55;;;;;;;;;;5036561;28;20113;-70
2023/01/06 08:25:02;;;;;;;3.03;2.60;;;;;;;;;;5056415;28;20056;-70
2023/01/06 08:27:31;;;;;;;4.10;3.20;;;;;;;;;;5056565;28;20033;-70
2023/01/06 08:30:06;;;;;;;4.70;2.22;;;;;;;;;;5056008;28;20044;-69
2023/01/06 08:32:37;;;;;;;9.40;4.45;;;;;;;;;;5055619;28;20064;-69
2023/01/06 08:35:07;;;;;;;4.85;3.47;;;;;;;;;;5056080;28;20029;-70
2023/01/06 08:37:36;;;;;;;5.18;3.92;;;;;;;;;;5056144;28;20052;-70
2023/01/06 08:40:07;;;;;;;4.32;3.90;;;;;;;;;;5055853;28;20029;-69
2023/01/06 08:42:37;;;;;;;2.75;2.50;;;;;;;;;;5056080;28;20079;-70
2023/01/06 08:45:06;;;;;;;5.28;3.33;;;;;;;;;;5056031;28;20095;-70
2023/01/06 08:47:36;;;;;;;4.15;3.75;;;;;;;;;;5055468;28;20104;-70
2023/01/06 08:50:05;;;;;;;4.82;3.22;;;;;;;;;;5055935;28;20106;-70
2023/01/06 08:52:33;;;;;;;4.55;3.50;;;;;;;;;;5055797;28;20039;-70
2023/01/06 08:55:05;;;;;;;3.72;3.25;;;;;;;;;;5055509;28;20396;-69
2023/01/06 08:57:33;;;;;;;3.90;3.28;;;;;;;;;;5055517;28;20037;-70
2023/01/06 09:00:04;;;;;;;4.80;3.42;;;;;;;;;;5055499;28;20032;-69
2023/01/06 09:02:34;;;;;;;4.00;3.58;;;;;;;;;;5055419;28;20037;-70
2023/01/06 09:05:06;;;;;;;4.43;3.70;;;;;;;;;;5055116;28;20040;-69
2023/01/06 09:07:35;;;;;;;4.45;3.80;;;;;;;;;;5054965;28;20037;-69
2023/01/06 09:10:07;;;;;;;7.35;4.03;;;;;;;;;;5055295;28;20435;-69
2023/01/06 09:12:38;;;;;;;6.82;5.05;;;;;;;;;;5055159;28;20452;-69
2023/01/06 09:15:05;;;;;;;8.00;4.63;;;;;;;;;;5054894;28;20033;-69
2023/01/06 09:17:36;;;;;;;8.50;5.50;;;;;;;;;;5054785;28;20048;-70
2023/01/06 09:20:07;;;;;;;8.75;6.38;;;;;;;;;;5055068;28;20064;-70
2023/01/06 09:22:43;;;;;;;8.45;6.07;;;;;;;;;;5055095;28;20041;-69
2023/01/06 09:25:21;;;;;;;5.13;4.63;;;;;;;;;;5054688;28;20037;-70
2023/01/06 09:27:59;;;;;;;4.72;3.85;;;;;;;;;;5055179;28;20055;-70
2023/01/06 09:30:28;;;;;;;4.13;3.55;;;;;;;;;;5054905;28;20484;-70
2023/01/06 09:32:59;;;;;;;4.80;4.05;;;;;;;;;;5054758;28;20480;-70
2023/01/06 09:35:31;;;;;;;5.10;4.10;;;;;;;;;;5054504;28;20033;-69
2023/01/06 09:38:00;;;;;;;5.28;3.58;;;;;;;;;;5054701;28;20469;-69
2023/01/06 09:40:33;;;;;;;6.35;5.13;;;;;;;;;;5054533;28;20035;-70
2023/01/06 09:43:05;;;;;;;4.63;4.03;;;;;;;;;;5054635;28;20048;-62
2023/01/06 09:45:39;;;;;;;5.03;3.42;;;;;;;;;;5054810;28;20072;-62
2023/01/06 09:48:12;;;;;;;7.38;5.05;;;;;;;;;;5054213;28;20041;-62
2023/01/06 09:50:45;;;;;;;4.03;3.65;;;;;;;;;;5054506;28;20048;-62
2023/01/06 09:53:29;;;;;;;5.53;4.00;;;;;;;;;;5054381;28;20469;-62
2023/01/06 09:56:07;;;;;;;9.15;5.43;;;;;;;;;;5052862;28;20398;-62
2023/01/06 09:58:45;;;;;;;9.32;6.47;;;;;;;;;;5054384;28;20037;-63
2023/01/06 10:01:14;;;;;;;9.25;6.35;;;;;;;;;;5054294;28;20482;-62
2023/01/06 10:03:46;;;;;;;13.35;5.72;;;;;;;;;;5054040;28;20029;-62
2023/01/06 10:06:17;;;;;;;9.50;4.90;;;;;;;;;;5054201;28;20037;-62
2023/01/06 10:08:46;;;;;;;7.72;5.28;;;;;;;;;;5054195;28;20048;-62
2023/01/06 10:11:30;;;;;;;6.90;4.68;;;;;;;;;;5054142;28;20044;-62
2023/01/06 10:14:14;;;;;;;6.53;5.15;;;;;;;;;;5053996;28;20548;-62
2023/01/06 10:16:48;;;;;;;5.97;4.72;;;;;;;;;;5054387;28;20056;-62
2023/01/06 10:19:34;;;;;;;6.18;3.97;;;;;;;;;;5053528;28;20033;-62
2023/01/06 10:22:12;;;;;;;6.13;3.85;;;;;;;;;;5054268;28;20040;-62
2023/01/06 10:24:56;;;;;;;7.30;4.18;;;;;;;;;;5053440;28;20045;-63
2023/01/06 10:27:26;;;;;;;6.63;4.35;;;;;;;;;;5069048;28;20040;-63
2023/01/06 10:29:54;;;;;;;5.15;3.28;;;;;;;;;;5053875;28;20109;-63
2023/01/06 10:32:20;;;;;;;3.45;2.92;;;;;;;;;;5053494;28;20045;-62
2023/01/06 10:34:47;;;;;;;3.10;2.72;;;;;;;;;;5054080;28;20044;-62
2023/01/06 10:37:18;;;;;;;5.50;4.18;;;;;;;;;;5036062;28;20091;-62
2023/01/06 10:39:45;;;;;;;7.75;4.60;;;;;;;;;;5053480;28;20029;-62
2023/01/06 10:45:01;;;;;;;7.72;4.68;;;;;;;;;;5054005;28;20045;-62
2023/01/06 10:47:28;;;;;;;9.68;6.85;;;;;;;;;;5053440;28;20400;-62
2023/01/06 10:49:54;;;;;;;12.43;7.65;;;;;;;;;;5052228;28;20025;-63
2023/01/06 10:52:20;;;;;;;9.40;6.53;;;;;;;;;;5053888;28;20048;-62
2023/01/06 10:54:47;;;;;;;8.30;6.03;;;;;;;;;;5053320;28;20101;-62
2023/01/06 10:57:20;;;;;;;5.82;4.95;;;;;;;;;;5053873;28;20465;-62
2023/01/06 11:00:05;;;;;;;4.45;3.97;;;;;;;;;;5053326;28;20392;-63
2023/01/06 11:02:30;;;;;;;4.47;3.35;;;;;;;;;;5053580;28;20087;-62
2023/01/06 11:04:59;;;;;;;4.78;4.28;;;;;;;;;;5053522;28;20033;-63
2023/01/06 11:07:25;;;;;;;4.80;4.38;;;;;;;;;;5035511;28;20440;-62
2023/01/06 11:09:50;;;;;;;7.15;4.38;;;;;;;;;;5053220;28;20041;-63
2023/01/06 11:12:21;;;;;;;7.55;5.45;;;;;;;;;;5053090;28;20040;-62
2023/01/06 11:14:51;;;;;;;5.60;4.43;;;;;;;;;;5053735;28;20043;-62
2023/01/06 11:17:20;;;;;;;4.93;3.67;;;;;;;;;;5051921;28;20040;-63
2023/01/06 11:20:02;;;;;;;4.70;3.75;;;;;;;;;;5053382;28;20112;-62
2023/01/06 11:22:38;;;;;;;4.03;3.63;;;;;;;;;;5053106;28;20062;-62
2023/01/06 11:25:29;;;;;;;3.58;3.22;;;;;;;;;;5052986;28;20045;-62
2023/01/06 11:28:16;;;;;;;4.88;3.97;;;;;;;;;;5051767;28;20041;-62
2023/01/06 11:30:52;;;;;;;5.50;3.97;;;;;;;;;;5054248;28;20057;-62
2023/01/06 11:33:25;;;;;;;5.55;4.20;;;;;;;;;;5056741;28;20123;-63
2023/01/06 11:35:51;;;;;;;3.72;3.42;;;;;;;;;;5057325;28;20116;-63
2023/01/06 11:38:18;;;;;;;6.15;3.95;;;;;;;;;;5056719;28;20113;-63
2023/01/06 11:40:47;;;;;;;6.50;4.55;;;;;;;;;;5057001;28;20086;-63
2023/01/06 11:43:14;;;;;;;5.93;3.92;;;;;;;;;;5057182;28;20083;-63
2023/01/06 11:45:45;;;;;;;5.10;4.00;;;;;;;;;;5056605;28;20040;-63
2023/01/06 11:48:14;;;;;;;5.65;3.65;;;;;;;;;;5056579;28;20476;-62
2023/01/06 11:50:39;;;;;;;4.28;3.05;;;;;;;;;;5056585;28;20033;-62
2023/01/06 11:53:14;;;;;;;4.18;3.75;;;;;;;;;;5056426;28;20396;-62
2023/01/06 11:55:39;;;;;;;4.57;4.07;;;;;;;;;;5056720;28;20033;-62
2023/01/06 11:58:10;;;;;;;9.27;7.68;;;;;;;;;;5056665;28;20040;-62
2023/01/06 12:00:51;;;;;;;5.78;5.18;;;;;;;;;;5056599;28;20029;-62
2023/01/06 12:03:24;;;;;;;16.00;11.45;;;;;;;;;;5056565;28;20137;-62
2023/01/06 12:06:08;;;;;;;5.20;3.92;;;;;;;;;;5056534;28;20037;-62
2023/01/06 12:08:39;;;;;;;7.18;4.60;;;;;;;;;;5054937;28;20048;-62
2023/01/06 12:11:17;;;;;;;3.63;3.20;;;;;;;;;;5056338;28;20037;-62
2023/01/06 12:13:43;;;;;;;4.13;2.65;;;;;;;;;;5054830;28;20048;-62
2023/01/06 12:16:13;;;;;;;4.30;3.38;;;;;;;;;;5056370;28;20380;-62
2023/01/06 12:18:40;;;;;;;5.72;3.92;;;;;;;;;;5056277;28;20037;-63
2023/01/06 12:21:11;;;;;;;10.20;6.03;;;;;;;;;;5054708;28;20033;-63
2023/01/06 12:23:36;;;;;;;;;;;;;;;;;;5056210;28;20099;-62
2023/01/06 12:26:08;;;;;;;11.73;6.50;;;;;;;;;;5055252;28;19912;-62
2023/01/06 12:28:38;;;;;;;6.97;4.80;;;;;;;;;;5056046;28;20072;-62
2023/01/06 12:31:19;;;;;;;25.00;12.50;;;;;;;;;;5055755;28;20049;-62
2023/01/06 12:33:44;;;;;;;;;;;;;;;;;;5056384;28;20435;-62
2023/01/06 12:36:12;;;;;;;12.65;6.90;;;;;;;;;;5055685;28;19908;-63
2023/01/06 12:38:51;;;;;;;5.70;4.38;;;;;;;;;;5038190;28;20392;-63
2023/01/06 12:41:26;;;;;;;6.22;3.42;;;;;;;;;;5055419;28;20036;-63
2023/01/06 12:44:11;;;;;;;18.08;9.73;;;;;;;;;;5054638;28;20068;-62
2023/01/06 12:46:42;;;;;;;8.00;4.72;;;;;;;;;;5023653;28;20454;-63
2023/01/06 12:49:17;;;;;;;4.45;3.38;;;;;;;;;;5055717;28;20499;-62
2023/01/06 12:51:45;;;;;;;3.92;3.33;;;;;;;;;;5053991;28;20037;-63
2023/01/06 12:54:13;;;;;;;7.35;4.30;;;;;;;;;;5055326;28;20032;-62
2023/01/06 12:56:39;;;;;;;5.85;3.92;;;;;;;;;;5055423;28;20070;-62
2023/01/06 12:59:10;;;;;;;9.45;6.22;;;;;;;;;;5054485;28;20079;-62
2023/01/06 13:01:39;;;;;;;17.15;9.90;;;;;;;;;;5055692;28;20037;-62
2023/01/06 13:04:12;;;;;;;17.97;11.07;;;;;;;;;;5055160;28;20110;-62
2023/01/06 13:06:44;;;;;;;7.22;5.90;;;;;;;;;;5055081;28;20619;-62
2023/01/06 13:09:15;;;;;;;8.57;5.50;;;;;;;;;;5053773;28;20037;-62
2023/01/06 13:12:03;;;;;;;4.90;3.80;;;;;;;;;;5055248;28;20048;-62
2023/01/06 13:14:38;;;;;;;4.57;3.92;;;;;;;;;;5054643;28;20036;-62
2023/01/06 13:17:08;;;;;;;5.20;4.40;;;;;;;;;;5055433;28;20033;-62
2023/01/06 13:19:36;;;;;;;7.70;5.68;;;;;;;;;;5054814;28;20041;-62
2023/01/06 13:22:04;;;;;;;23.48;13.27;;;;;;;;;;5055349;28;20036;-62
2023/01/06 13:24:39;;;;;;;34.05;20.08;;;;;;;;;;5054583;28;20048;-62
2023/01/06 13:27:17;;;;;;;7.15;5.25;;;;;;;;;;5054982;28;20091;-62
2023/01/06 13:29:48;;;;;;;9.52;6.25;;;;;;;;;;5054895;28;20116;-62
2023/01/06 13:32:32;;;;;;;20.73;13.05;;;;;;;;;;5054770;28;20088;-63
2023/01/06 13:35:04;;;;;;;31.65;16.83;;;;;;;;;;5055079;28;20037;-62
2023/01/06 13:37:34;;;;;;;9.30;6.80;;;;;;;;;;5055042;28;20033;-63
2023/01/06 13:40:13;;;;;;;16.02;10.82;;;;;;;;;;5054754;28;20037;-62
2023/01/06 13:43:00;;;;;;;17.70;10.93;;;;;;;;;;5054672;28;20516;-62
2023/01/06 13:45:27;;;;;;;25.75;13.93;;;;;;;;;;5036879;28;20084;-62
2023/01/06 13:47:53;;;;;;;17.33;11.32;;;;;;;;;;5036831;28;20162;-62
2023/01/06 13:50:20;;;;;;;15.52;9.15;;;;;;;;;;5054561;28;20037;-62
2023/01/06 13:52:46;;;;;;;30.05;18.27;;;;;;;;;;5053699;28;20491;-62
2023/01/06 13:55:18;;;;;;;21.20;15.55;;;;;;;;;;5053843;28;20033;-63
2023/01/06 13:57:45;;;;;;;36.70;20.38;;;;;;;;;;5054099;28;20128;-62
2023/01/06 14:00:14;;;;;;;24.70;15.13;;;;;;;;;;5053181;28;20413;-62
2023/01/06 14:02:41;;;;;;;22.42;14.75;;;;;;;;;;5054586;28;20393;-62
2023/01/06 14:05:19;;;;;;;15.60;11.07;;;;;;;;;;5052830;28;20066;-62
2023/01/06 14:08:05;;;;;;;22.42;13.45;;;;;;;;;;5053105;28;20175;-62
2023/01/06 14:10:36;;;;;;;18.77;10.73;;;;;;;;;;5052012;28;20049;-62
2023/01/06 14:13:03;;;;;;;36.97;19.65;;;;;;;;;;5054096;28;20041;-62
2023/01/06 14:15:30;;;;;;;38.03;24.30;;;;;;;;;;5035986;28;20025;-62
2023/01/06 14:17:56;;;;;;;39.35;22.85;;;;;;;;;;5052523;28;20035;-62
2023/01/06 14:20:26;;;;;;;44.08;24.60;;;;;;;;;;5052510;28;20037;-62
2023/01/06 14:23:05;;;;;;;42.93;22.97;;;;;;;;;;5053833;28;20063;-62
2023/01/06 14:25:50;;;;;;;29.65;17.90;;;;;;;;;;5053953;28;20358;-62
2023/01/06 14:28:18;;;;;;;29.17;18.25;;;;;;;;;;5054114;28;20384;-62
2023/01/06 14:30:44;;;;;;;37.22;20.60;;;;;;;;;;5053876;28;20036;-62
2023/01/06 14:33:32;;;;;;;66.50;37.80;;;;;;;;;;5053516;28;20536;-62
2023/01/06 14:36:00;;;;;;;66.97;36.70;;;;;;;;;;5053795;28;20037;-62
2023/01/06 14:38:28;;;;;;;78.95;39.50;;;;;;;;;;5053512;28;20139;-62
2023/01/06 14:40:54;;;;;;;90.60;46.25;;;;;;;;;;5036006;28;20033;-63
2023/01/06 14:43:33;;;;;;;68.32;37.17;;;;;;;;;;5053459;28;20037;-62
2023/01/06 14:46:18;;;;;;;93.00;46.05;;;;;;;;;;5053767;28;20037;-62
2023/01/06 14:48:45;;;;;;;85.00;42.72;;;;;;;;;;5053411;28;20095;-62
2023/01/06 14:51:18;;;;;;;34.65;21.90;;;;;;;;;;5052149;28;20045;-62
2023/01/06 14:53:47;;;;;;;29.35;16.58;;;;;;;;;;5053236;28;20116;-63
2023/01/06 14:56:20;;;;;;;34.00;17.98;;;;;;;;;;5053572;28;20043;-62
2023/01/06 14:58:45;;;;;;;26.77;17.15;;;;;;;;;;5053872;28;20045;-62
2023/01/06 15:01:21;;;;;;;24.15;14.10;;;;;;;;;;5053590;28;20041;-63
2023/01/06 15:03:54;;;;;;;17.25;10.50;;;;;;;;;;5053564;28;20033;-63
2023/01/06 15:06:25;;;;;;;15.70;10.48;;;;;;;;;;5056971;28;20041;-63
2023/01/06 15:08:51;;;;;;;16.77;10.75;;;;;;;;;;5057571;28;20552;-62
2023/01/06 15:11:19;;;;;;;16.52;11.23;;;;;;;;;;5056007;28;20064;-63
2023/01/06 15:13:44;;;;;;;18.48;12.65;;;;;;;;;;5056296;28;20452;-63
2023/01/06 15:16:17;;;;;;;15.00;10.65;;;;;;;;;;5057454;28;20029;-63
2023/01/06 15:18:44;;;;;;;16.63;12.82;;;;;;;;;;5057152;28;20036;-63
2023/01/06 15:21:09;;;;;;;17.83;13.48;;;;;;;;;;5057338;28;20041;-63
2023/01/06 15:23:36;;;;;;;17.83;13.63;;;;;;;;;;5057023;28;20036;-62
2023/01/06 15:26:02;;;;;;;20.65;13.68;;;;;;;;;;5039108;28;20412;-62
2023/01/06 15:28:31;;;;;;;15.75;11.45;;;;;;;;;;5056947;28;20029;-62
2023/01/06 15:30:57;;;;;;;20.50;13.43;;;;;;;;;;5057219;28;20044;-62
2023/01/06 15:33:25;;;;;;;17.70;11.80;;;;;;;;;;5056816;28;20120;-62
2023/01/06 15:35:51;;;;;;;40.22;21.48;;;;;;;;;;5057101;28;20435;-62
2023/01/06 15:38:24;;;;;;;70.97;36.20;;;;;;;;;;5056822;28;20051;-62
2023/01/06 15:40:51;;;;;;;79.80;39.47;;;;;;;;;;5038989;28;20108;-62
2023/01/06 15:43:16;;;;;;;37.10;20.15;;;;;;;;;;5057263;28;20048;-62
2023/01/06 15:45:42;;;;;;;25.88;15.48;;;;;;;;;;5056887;28;20041;-62
2023/01/06 15:48:16;;;;;;;25.63;15.63;;;;;;;;;;5056595;28;20040;-62